Time;durP1;ratioP1;P1;durP2;ratioP2;P2;SDS_P1;SDS_P2;PMS_P1;PMS_P2;Temp;Humidity;BMP_temperature;BMP_pressure;BME280_temperature;BME280_humidity;BME280_pressure;Samples;Min_cycle;Max_cycle;Signal;HPM_P1;HPM_P2
2022/09/10 00:01:12;;;;;;;15.43;2.85;;;25.70;80.70;;;;;;5034754;28;20029;-71
2022/09/10 00:03:38;;;;;;;9.05;2.47;;;25.60;80.80;;;;;;5034540;28;20021;-69
2022/09/10 00:06:04;;;;;;;16.88;3.47;;;25.70;81.10;;;;;;5034308;28;20386;-69
2022/09/10 00:08:32;;;;;;;9.07;2.65;;;25.70;81.20;;;;;;5034217;28;20042;-70
2022/09/10 00:11:04;;;;;;;9.35;2.78;;;25.60;81.00;;;;;;5034218;28;20095;-69
2022/09/10 00:13:29;;;;;;;9.70;2.85;;;25.60;81.00;;;;;;5033078;28;20034;-71
2022/09/10 00:15:55;;;;;;;13.00;2.85;;;25.60;81.00;;;;;;5034419;28;20151;-70
2022/09/10 00:18:22;;;;;;;9.50;2.30;;;25.60;81.10;;;;;;5033893;28;20040;-73
2022/09/10 00:20:53;;;;;;;13.18;3.05;;;25.60;80.90;;;;;;5034016;28;20104;-68
2022/09/10 00:23:22;;;;;;;11.50;2.42;;;25.60;80.70;;;;;;5034229;28;20048;-70
2022/09/10 00:25:50;;;;;;;9.88;2.55;;;25.60;80.50;;;;;;5033967;28;20036;-73
2022/09/10 00:28:18;;;;;;;9.88;2.50;;;25.60;80.70;;;;;;5034078;28;20037;-69
2022/09/10 00:30:45;;;;;;;9.85;2.10;;;25.60;80.20;;;;;;5034250;28;20032;-72
2022/09/10 00:33:13;;;;;;;6.65;2.08;;;25.60;80.10;;;;;;5033986;28;20087;-71
2022/09/10 00:35:39;;;;;;;12.52;2.53;;;25.70;80.10;;;;;;5033914;28;20025;-73
2022/09/10 00:38:06;;;;;;;8.45;2.40;;;25.70;79.90;;;;;;5034105;28;20022;-72
2022/09/10 00:40:32;;;;;;;10.02;2.30;;;25.60;79.50;;;;;;5033980;28;20037;-72
2022/09/10 00:42:58;;;;;;;10.40;2.60;;;25.60;79.50;;;;;;5016108;28;20060;-71
2022/09/10 00:45:30;;;;;;;7.50;2.42;;;25.60;79.10;;;;;;5034082;28;20038;-69
2022/09/10 00:48:02;;;;;;;8.95;2.00;;;25.60;79.00;;;;;;5034115;28;20021;-74
2022/09/10 00:50:37;;;;;;;6.40;2.40;;;25.60;79.10;;;;;;5034026;28;20033;-72
2022/09/10 00:53:07;;;;;;;8.25;2.17;;;25.60;79.00;;;;;;5033944;28;20017;-72
2022/09/10 00:55:36;;;;;;;7.38;2.60;;;25.60;79.00;;;;;;5033366;28;20111;-69
2022/09/10 00:58:05;;;;;;;7.47;2.05;;;25.60;78.80;;;;;;5033759;28;20025;-72
2022/09/10 01:00:31;;;;;;;9.07;2.53;;;25.60;78.60;;;;;;5033609;28;20037;-70
2022/09/10 01:02:58;;;;;;;9.57;2.30;;;25.60;78.50;;;;;;5033395;28;20062;-72
2022/09/10 01:05:25;;;;;;;7.72;2.58;;;25.60;78.40;;;;;;5033364;28;20536;-71
2022/09/10 01:07:51;;;;;;;10.05;2.45;;;25.70;78.50;;;;;;5033417;28;20076;-70
2022/09/10 01:10:27;;;;;;;12.75;2.90;;;25.70;78.30;;;;;;5033414;28;20029;-69
2022/09/10 01:13:31;;;;;;;10.82;2.40;;;25.70;78.50;;;;;;5033322;28;20018;-68
2022/09/10 01:16:11;;;;;;;8.45;2.60;;;25.70;79.20;;;;;;4972484;28;20492;-72
2022/09/10 01:18:43;;;;;;;11.60;2.80;;;25.70;79.70;;;;;;5026115;28;20032;-70
2022/09/10 01:21:18;;;;;;;18.27;2.45;;;25.70;79.60;;;;;;5033272;28;20340;-72
2022/09/10 01:24:17;;;;;;;10.55;2.40;;;25.90;80.30;;;;;;5033211;28;20105;-70
2022/09/10 01:27:01;;;;;;;8.30;2.20;;;25.80;80.00;;;;;;5033210;28;20429;-69
2022/09/10 01:29:51;;;;;;;11.35;2.28;;;25.90;79.20;;;;;;5033343;28;20031;-71
2022/09/10 01:32:39;;;;;;;11.88;2.28;;;25.80;79.00;;;;;;5033297;28;20080;-72
2022/09/10 01:35:10;;;;;;;13.23;2.78;;;25.70;79.70;;;;;;5032449;28;20045;-67
2022/09/10 01:37:38;;;;;;;12.73;2.88;;;25.70;79.70;;;;;;5032924;28;20018;-70
2022/09/10 01:40:05;;;;;;;12.90;2.70;;;25.70;80.00;;;;;;5032905;28;20025;-69
2022/09/10 01:42:31;;;;;;;11.88;2.50;;;25.70;80.20;;;;;;5033256;28;20025;-69
2022/09/10 01:44:57;;;;;;;11.52;2.70;;;25.70;80.40;;;;;;5034342;28;20510;-68
2022/09/10 01:47:26;;;;;;;13.57;2.25;;;25.70;80.30;;;;;;5042435;28;20021;-68
2022/09/10 01:50:25;;;;;;;10.48;2.55;;;25.60;81.10;;;;;;5041488;28;20037;-69
2022/09/10 01:53:04;;;;;;;10.57;2.75;;;25.60;81.20;;;;;;5035627;28;20101;-69
2022/09/10 01:55:40;;;;;;;10.38;2.85;;;25.60;80.30;;;;;;5032841;28;20044;-68
2022/09/10 01:58:06;;;;;;;14.20;2.30;;;25.60;81.80;;;;;;5032949;28;20030;-70
2022/09/10 02:00:34;;;;;;;12.43;3.20;;;25.60;81.00;;;;;;5014807;28;20441;-68
2022/09/10 02:03:10;;;;;;;21.90;2.90;;;25.60;80.90;;;;;;5032589;28;20026;-68
2022/09/10 02:05:39;;;;;;;16.50;2.53;;;25.60;80.90;;;;;;5032158;28;20048;-67
2022/09/10 02:08:13;;;;;;;15.38;3.30;;;25.60;81.30;;;;;;5034099;28;20060;-70
2022/09/10 02:10:55;;;;;;;15.73;2.60;;;25.60;81.60;;;;;;5036767;28;20028;-68
2022/09/10 02:13:22;;;;;;;10.60;2.78;;;25.60;81.70;;;;;;5036786;28;20036;-71
2022/09/10 02:15:50;;;;;;;13.02;2.85;;;25.70;81.70;;;;;;5036513;28;20562;-68
2022/09/10 02:18:18;;;;;;;11.38;2.63;;;25.60;81.80;;;;;;5036290;28;20075;-73
2022/09/10 02:20:45;;;;;;;12.05;2.47;;;25.60;82.00;;;;;;5036364;28;20041;-70
2022/09/10 02:23:13;;;;;;;13.25;2.47;;;25.60;82.00;;;;;;5036665;28;20508;-68
2022/09/10 02:25:39;;;;;;;13.93;2.60;;;25.60;81.90;;;;;;5036289;28;20068;-70
2022/09/10 02:28:05;;;;;;;18.40;2.63;;;25.60;82.30;;;;;;5036409;28;20022;-69
2022/09/10 02:30:31;;;;;;;11.45;2.70;;;25.60;82.40;;;;;;5036221;28;20067;-67
2022/09/10 02:32:57;;;;;;;15.00;2.53;;;25.60;82.70;;;;;;5018368;28;20021;-69
2022/09/10 02:35:23;;;;;;;11.98;2.63;;;25.60;82.90;;;;;;5035973;28;20033;-68
2022/09/10 02:37:49;;;;;;;13.07;3.25;;;25.60;83.00;;;;;;5036228;28;20568;-69
2022/09/10 02:40:18;;;;;;;12.15;2.72;;;25.50;82.90;;;;;;5035656;28;20413;-69
2022/09/10 02:42:45;;;;;;;16.63;3.00;;;25.50;83.20;;;;;;5036035;28;20071;-68
2022/09/10 02:45:12;;;;;;;10.95;2.95;;;25.50;83.50;;;;;;5035989;28;20037;-69
2022/09/10 02:47:38;;;;;;;10.60;2.17;;;25.50;83.60;;;;;;5036119;28;20107;-72
2022/09/10 02:50:05;;;;;;;11.75;2.50;;;25.50;83.80;;;;;;5036101;28;20474;-68
2022/09/10 02:52:32;;;;;;;11.90;2.63;;;25.50;84.20;;;;;;5035990;28;20025;-68
2022/09/10 02:54:58;;;;;;;9.35;2.47;;;25.40;84.10;;;;;;5035703;28;20022;-68
2022/09/10 02:57:25;;;;;;;11.85;2.88;;;25.50;84.30;;;;;;5035881;28;20376;-69
2022/09/10 02:59:51;;;;;;;12.52;2.70;;;25.50;84.20;;;;;;5035677;28;20021;-70
2022/09/10 03:02:19;;;;;;;12.68;2.90;;;25.50;84.10;;;;;;5035700;28;20033;-69
2022/09/10 03:04:45;;;;;;;11.90;3.33;;;25.50;85.20;;;;;;5035662;28;20142;-70
2022/09/10 03:07:15;;;;;;;13.20;3.03;;;25.50;84.60;;;;;;5035849;28;20377;-73
2022/09/10 03:09:41;;;;;;;12.82;3.15;;;25.50;84.90;;;;;;5035676;28;20037;-68
2022/09/10 03:12:07;;;;;;;15.50;3.70;;;25.50;85.30;;;;;;5035793;28;20029;-73
2022/09/10 03:14:33;;;;;;;13.77;3.25;;;25.50;85.40;;;;;;5035754;28;20028;-71
2022/09/10 03:16:59;;;;;;;13.52;2.97;;;25.50;85.70;;;;;;5035675;28;20115;-71
2022/09/10 03:19:25;;;;;;;10.50;2.83;;;25.40;86.00;;;;;;5034111;28;20068;-68
2022/09/10 03:21:51;;;;;;;14.25;3.42;;;25.40;86.20;;;;;;5035837;28;20074;-69
2022/09/10 03:24:17;;;;;;;18.65;3.78;;;25.50;86.20;;;;;;5035321;28;20033;-71
2022/09/10 03:26:43;;;;;;;19.95;3.90;;;25.50;86.30;;;;;;5035278;28;20044;-71
2022/09/10 03:29:11;;;;;;;15.00;3.08;;;25.40;86.40;;;;;;5035722;28;20096;-73
2022/09/10 03:31:38;;;;;;;14.18;3.45;;;25.40;87.00;;;;;;5035180;28;20029;-74
2022/09/10 03:34:05;;;;;;;15.00;3.80;;;25.30;87.20;;;;;;5035317;28;20022;-69
2022/09/10 03:36:30;;;;;;;11.90;3.10;;;25.30;87.50;;;;;;5035161;28;20033;-70
2022/09/10 03:38:57;;;;;;;11.95;3.30;;;25.30;87.90;;;;;;5035235;28;20026;-74
2022/09/10 03:41:25;;;;;;;10.85;3.22;;;25.30;88.10;;;;;;5035310;28;20549;-70
2022/09/10 03:43:53;;;;;;;15.07;3.25;;;25.30;88.20;;;;;;5034932;28;20421;-71
2022/09/10 03:46:19;;;;;;;14.70;4.03;;;25.30;88.50;;;;;;5035051;28;20059;-73
2022/09/10 03:48:44;;;;;;;12.60;3.13;;;25.20;88.90;;;;;;5035589;28;20096;-70
2022/09/10 03:51:10;;;;;;;13.90;3.33;;;25.20;89.20;;;;;;5037487;28;20476;-70
2022/09/10 03:53:37;;;;;;;14.00;3.90;;;25.20;89.20;;;;;;5047541;28;20026;-70
2022/09/10 03:56:03;;;;;;;15.13;3.35;;;25.20;89.20;;;;;;5048084;28;20029;-75
2022/09/10 03:58:31;;;;;;;11.52;3.30;;;25.20;89.30;;;;;;5035258;28;20025;-72
2022/09/10 04:00:57;;;;;;;12.07;3.40;;;25.10;89.70;;;;;;5034917;28;20029;-73
2022/09/10 04:03:23;;;;;;;17.83;4.53;;;25.10;89.80;;;;;;5034848;28;20022;-71
2022/09/10 04:05:49;;;;;;;19.67;4.18;;;25.10;90.00;;;;;;5034537;28;20064;-71
2022/09/10 04:08:16;;;;;;;16.17;4.55;;;25.10;90.10;;;;;;5034402;28;20080;-74
2022/09/10 04:10:46;;;;;;;16.25;4.05;;;25.10;90.30;;;;;;5034748;28;20482;-74
2022/09/10 04:13:12;;;;;;;15.73;3.67;;;25.10;90.30;;;;;;5034714;28;20079;-69
2022/09/10 04:15:38;;;;;;;14.43;4.72;;;25.00;90.40;;;;;;5034530;28;20037;-74
2022/09/10 04:18:05;;;;;;;15.35;3.70;;;25.10;90.50;;;;;;5034538;28;20028;-69
2022/09/10 04:20:32;;;;;;;16.13;4.18;;;25.10;90.50;;;;;;5034475;28;20458;-75
2022/09/10 04:22:58;;;;;;;14.38;3.53;;;25.10;90.80;;;;;;5034669;28;20037;-73
2022/09/10 04:25:23;;;;;;;15.45;3.40;;;25.10;90.60;;;;;;5034428;28;20037;-73
2022/09/10 04:27:49;;;;;;;16.75;3.03;;;25.10;90.80;;;;;;5034612;28;20535;-72
2022/09/10 04:30:16;;;;;;;13.98;3.25;;;25.10;90.70;;;;;;5033926;28;20026;-70
2022/09/10 04:32:43;;;;;;;11.27;3.17;;;25.10;90.70;;;;;;5016475;28;20037;-72
2022/09/10 04:35:10;;;;;;;16.80;3.30;;;25.10;90.80;;;;;;5034062;28;20026;-72
2022/09/10 04:37:36;;;;;;;14.50;3.80;;;25.10;90.90;;;;;;5034133;28;20026;-75
2022/09/10 04:40:03;;;;;;;14.32;3.40;;;25.10;90.90;;;;;;5034098;28;20024;-70
2022/09/10 04:42:30;;;;;;;14.05;3.63;;;25.10;91.00;;;;;;5033862;28;20036;-75
2022/09/10 04:44:56;;;;;;;16.83;3.72;;;25.00;90.90;;;;;;5033623;28;20069;-71
2022/09/10 04:47:22;;;;;;;15.70;3.42;;;25.00;91.10;;;;;;5033913;28;20115;-70
2022/09/10 04:49:48;;;;;;;9.55;3.03;;;25.00;91.20;;;;;;5033634;28;20545;-71
2022/09/10 04:52:16;;;;;;;18.58;3.67;;;25.00;91.30;;;;;;5033651;28;20025;-67
2022/09/10 04:54:41;;;;;;;10.05;3.40;;;25.00;91.30;;;;;;5033744;28;20032;-69
2022/09/10 04:57:08;;;;;;;15.05;3.63;;;24.90;91.20;;;;;;5033584;28;20037;-70
2022/09/10 04:59:33;;;;;;;13.15;3.63;;;25.00;91.30;;;;;;5033556;28;20418;-69
2022/09/10 05:02:00;;;;;;;16.77;4.00;;;25.00;91.40;;;;;;5033543;28;20025;-67
2022/09/10 05:04:26;;;;;;;15.70;4.05;;;25.00;91.20;;;;;;5033008;28;20467;-72
2022/09/10 05:06:52;;;;;;;13.48;3.67;;;25.00;91.20;;;;;;5033247;28;20041;-70
2022/09/10 05:09:19;;;;;;;13.40;3.38;;;25.00;91.10;;;;;;5033002;28;20522;-71
2022/09/10 05:11:48;;;;;;;12.77;3.58;;;25.00;90.80;;;;;;5033313;28;20163;-68
2022/09/10 05:14:15;;;;;;;14.68;3.63;;;25.00;90.70;;;;;;5033207;28;20029;-69
2022/09/10 05:16:42;;;;;;;14.27;3.67;;;25.00;90.60;;;;;;5033228;28;20053;-70
2022/09/10 05:19:07;;;;;;;15.45;3.35;;;25.10;90.60;;;;;;5033166;28;20420;-70
2022/09/10 05:21:33;;;;;;;12.10;3.22;;;25.10;90.70;;;;;;5033114;28;20116;-71
2022/09/10 05:23:59;;;;;;;13.40;3.60;;;25.10;90.70;;;;;;5033169;28;20029;-75
2022/09/10 05:26:26;;;;;;;16.27;3.58;;;25.10;90.60;;;;;;5032955;28;20501;-69
2022/09/10 05:28:52;;;;;;;14.18;4.78;;;25.20;90.10;;;;;;5032880;28;20025;-70
2022/09/10 05:31:21;;;;;;;13.95;4.40;;;25.10;88.30;;;;;;5032997;28;20052;-70
2022/09/10 05:33:47;;;;;;;13.32;4.03;;;25.10;87.90;;;;;;5032619;28;20318;-67
2022/09/10 05:36:13;;;;;;;14.05;4.32;;;25.00;86.90;;;;;;5033053;28;20481;-68
2022/09/10 05:38:39;;;;;;;16.08;4.13;;;25.10;86.60;;;;;;5032795;28;20026;-70
2022/09/10 05:41:09;;;;;;;10.30;4.10;;;25.10;86.90;;;;;;5032799;28;20053;-72
2022/09/10 05:43:35;;;;;;;15.38;4.43;;;25.10;86.10;;;;;;5031830;28;20033;-69
2022/09/10 05:46:01;;;;;;;15.65;4.40;;;25.20;85.40;;;;;;5032787;28;20030;-74
2022/09/10 05:48:27;;;;;;;13.93;4.20;;;25.30;84.30;;;;;;5032767;28;20037;-71
2022/09/10 05:50:53;;;;;;;14.90;5.05;;;25.40;83.70;;;;;;5033087;28;20037;-73
2022/09/10 05:53:20;;;;;;;13.80;4.18;;;25.40;83.40;;;;;;5032567;28;20453;-70
2022/09/10 05:55:46;;;;;;;16.00;4.20;;;25.40;83.90;;;;;;5032883;28;20383;-71
2022/09/10 05:58:12;;;;;;;15.50;4.32;;;25.40;83.40;;;;;;5032713;28;20064;-72
2022/09/10 06:00:38;;;;;;;15.68;5.18;;;25.50;82.80;;;;;;5033640;28;20026;-68
2022/09/10 06:03:04;;;;;;;15.95;4.57;;;25.80;82.60;;;;;;5034343;28;20378;-69
2022/09/10 06:05:30;;;;;;;15.98;5.05;;;26.00;82.00;;;;;;5033153;28;20085;-71
2022/09/10 06:07:56;;;;;;;13.00;4.05;;;26.20;81.30;;;;;;5032328;28;20056;-67
2022/09/10 06:10:22;;;;;;;14.93;4.10;;;26.30;80.70;;;;;;5032321;28;20029;-70
2022/09/10 06:12:50;;;;;;;16.65;4.22;;;26.40;80.10;;;;;;5032500;28;20480;-69
2022/09/10 06:15:19;;;;;;;18.55;4.32;;;26.60;79.90;;;;;;5032118;28;20079;-69
2022/09/10 06:17:45;;;;;;;13.23;3.75;;;26.80;79.60;;;;;;5032339;28;20072;-71
2022/09/10 06:20:11;;;;;;;16.02;3.85;;;26.80;79.60;;;;;;5032253;28;20479;-69
2022/09/10 06:22:38;;;;;;;12.70;3.45;;;27.00;79.60;;;;;;5032469;28;20120;-70
2022/09/10 06:25:05;;;;;;;19.02;4.15;;;27.20;79.40;;;;;;5032257;28;20033;-69
2022/09/10 06:27:31;;;;;;;14.52;3.40;;;27.30;79.40;;;;;;5032154;28;20072;-73
2022/09/10 06:29:56;;;;;;;12.65;3.85;;;27.30;79.00;;;;;;5032181;28;20045;-72
2022/09/10 06:32:22;;;;;;;14.20;3.90;;;27.40;79.10;;;;;;5032303;28;20382;-69
2022/09/10 06:34:48;;;;;;;17.13;3.35;;;27.60;79.10;;;;;;5032266;28;20021;-73
2022/09/10 06:37:14;;;;;;;12.45;3.15;;;27.70;78.40;;;;;;5032131;28;20032;-70
2022/09/10 06:39:40;;;;;;;13.88;4.03;;;27.90;78.20;;;;;;5032121;28;20364;-71
2022/09/10 06:42:06;;;;;;;16.88;3.78;;;28.00;77.50;;;;;;5031978;28;20494;-69
2022/09/10 06:44:32;;;;;;;11.20;3.50;;;28.20;77.50;;;;;;5031899;28;20030;-73
2022/09/10 06:46:58;;;;;;;15.18;4.22;;;28.40;77.00;;;;;;5031933;28;20529;-72
2022/09/10 06:49:23;;;;;;;11.50;3.75;;;28.50;77.00;;;;;;5032087;28;20102;-71
2022/09/10 06:51:49;;;;;;;13.30;2.90;;;28.70;76.60;;;;;;5032056;28;20025;-70
2022/09/10 06:54:16;;;;;;;12.10;3.17;;;28.80;76.50;;;;;;5033958;28;20018;-74
2022/09/10 06:56:45;;;;;;;15.00;4.22;;;28.90;76.20;;;;;;5035780;28;20036;-73
2022/09/10 06:59:13;;;;;;;13.68;3.65;;;29.10;75.50;;;;;;5034382;28;20507;-73
2022/09/10 07:01:39;;;;;;;16.48;3.92;;;29.20;75.00;;;;;;5035664;28;20459;-75
2022/09/10 07:04:05;;;;;;;13.43;3.53;;;29.30;74.30;;;;;;5035526;28;20072;-75
2022/09/10 07:06:34;;;;;;;13.55;3.20;;;29.40;73.80;;;;;;5035482;28;20116;-74
2022/09/10 07:09:00;;;;;;;14.95;3.47;;;29.50;73.60;;;;;;5035659;28;20041;-69
2022/09/10 07:11:30;;;;;;;14.07;3.85;;;29.60;73.00;;;;;;5035665;28;20033;-70
2022/09/10 07:13:57;;;;;;;15.57;3.80;;;29.70;72.80;;;;;;5035270;28;20037;-70
2022/09/10 07:16:25;;;;;;;13.55;3.38;;;29.80;72.20;;;;;;5035235;28;20487;-70
2022/09/10 07:18:53;;;;;;;14.88;3.15;;;29.80;71.20;;;;;;5034827;28;20033;-69
2022/09/10 07:21:20;;;;;;;10.27;2.78;;;29.90;70.90;;;;;;5034861;28;20148;-67
2022/09/10 07:23:50;;;;;;;14.25;3.22;;;30.00;70.20;;;;;;5035054;28;20022;-68
2022/09/10 07:26:21;;;;;;;12.95;3.40;;;30.10;69.60;;;;;;5035108;28;20549;-72
2022/09/10 07:28:47;;;;;;;11.63;2.83;;;30.20;68.70;;;;;;5035130;28;20032;-76
2022/09/10 07:31:23;;;;;;;6.38;2.05;;;30.30;67.40;;;;;;5035026;28;20382;-73
2022/09/10 07:33:49;;;;;;;12.18;2.22;;;30.20;66.40;;;;;;5035199;28;20026;-74
2022/09/10 07:36:16;;;;;;;13.25;3.10;;;30.40;66.00;;;;;;5035195;28;20474;-74
2022/09/10 07:38:44;;;;;;;12.55;2.70;;;30.50;65.70;;;;;;5034938;28;20308;-72
2022/09/10 07:41:12;;;;;;;10.93;3.10;;;30.40;65.90;;;;;;5034420;28;20025;-78
2022/09/10 07:43:42;;;;;;;10.93;2.63;;;30.40;65.50;;;;;;5034958;28;20540;-75
2022/09/10 07:46:11;;;;;;;10.50;3.33;;;30.40;65.50;;;;;;5034377;28;20117;-73
2022/09/10 07:48:40;;;;;;;9.85;2.30;;;30.30;65.30;;;;;;5035052;28;20014;-73
2022/09/10 07:51:07;;;;;;;12.93;2.92;;;30.20;65.60;;;;;;5016672;28;20036;-73
2022/09/10 07:53:34;;;;;;;11.32;3.10;;;30.10;65.90;;;;;;5034982;28;20104;-75
2022/09/10 07:56:01;;;;;;;10.88;3.47;;;30.10;65.70;;;;;;5034613;28;20021;-74
2022/09/10 07:58:28;;;;;;;10.77;3.08;;;30.00;65.70;;;;;;5034365;28;20036;-73
2022/09/10 08:00:54;;;;;;;8.95;2.53;;;30.00;65.40;;;;;;5034920;28;20556;-74
2022/09/10 08:03:20;;;;;;;10.82;3.13;;;30.10;65.30;;;;;;5034681;28;20021;-72
2022/09/10 08:05:47;;;;;;;10.95;3.00;;;30.10;65.10;;;;;;5033629;28;20116;-74
2022/09/10 08:08:13;;;;;;;12.27;2.95;;;30.10;64.80;;;;;;5034978;28;20041;-75
2022/09/10 08:10:39;;;;;;;10.45;2.50;;;30.10;64.50;;;;;;5035242;28;20036;-70
2022/09/10 08:13:05;;;;;;;8.38;2.42;;;29.90;64.40;;;;;;5045313;28;20051;-73
2022/09/10 08:15:31;;;;;;;12.57;2.60;;;29.80;64.60;;;;;;5047448;28;20029;-72
2022/09/10 08:17:59;;;;;;;10.68;2.67;;;29.70;65.10;;;;;;5034691;28;20021;-74
2022/09/10 08:20:25;;;;;;;14.35;2.72;;;29.70;64.70;;;;;;5034152;28;20030;-76
2022/09/10 08:22:51;;;;;;;10.27;2.22;;;29.70;64.50;;;;;;5034206;28;20022;-75
2022/09/10 08:25:19;;;;;;;9.40;2.40;;;29.80;63.30;;;;;;5034100;28;20025;-77
2022/09/10 08:27:45;;;;;;;8.20;2.70;;;29.80;63.10;;;;;;5034366;28;20085;-76
2022/09/10 08:30:13;;;;;;;12.32;2.30;;;29.80;62.70;;;;;;5034065;28;20101;-76
2022/09/10 08:32:39;;;;;;;10.20;1.90;;;29.70;61.90;;;;;;5033919;28;20057;-76
2022/09/10 08:35:05;;;;;;;11.13;2.47;;;29.70;61.40;;;;;;5033601;28;20041;-76
2022/09/10 08:37:32;;;;;;;11.43;1.92;;;29.60;61.30;;;;;;5034041;28;20036;-77
2022/09/10 08:39:58;;;;;;;12.73;2.50;;;29.60;61.70;;;;;;5032750;28;20079;-78
2022/09/10 08:42:45;;;;;;;7.75;2.30;;;29.60;61.70;;;;;;5033883;28;20402;-77
2022/09/10 08:45:19;;;;;;;12.07;3.53;;;29.60;62.00;;;;;;5033573;28;20510;-77
2022/09/10 08:47:48;;;;;;;8.50;2.15;;;29.60;61.90;;;;;;5034104;28;20025;-75
2022/09/10 08:50:33;;;;;;;10.35;2.40;;;29.60;61.90;;;;;;5016052;28;20034;-68
2022/09/10 08:53:19;;;;;;;8.60;2.35;;;29.60;61.70;;;;;;5033273;28;20033;-70
2022/09/10 08:55:46;;;;;;;15.75;2.53;;;29.60;61.90;;;;;;5033341;28;20121;-69
2022/09/10 08:58:22;;;;;;;10.98;2.67;;;29.60;61.80;;;;;;5033389;28;20348;-69
2022/09/10 09:00:54;;;;;;;9.27;2.28;;;29.70;61.80;;;;;;5033774;28;20363;-71
2022/09/10 09:03:37;;;;;;;9.95;3.05;;;29.70;61.50;;;;;;5033114;28;20428;-69
2022/09/10 09:06:07;;;;;;;9.73;2.70;;;29.80;61.40;;;;;;5032799;28;20037;-73
2022/09/10 09:08:40;;;;;;;11.35;2.47;;;29.90;61.20;;;;;;5033012;28;20041;-72
2022/09/10 09:11:25;;;;;;;9.70;2.60;;;29.90;61.10;;;;;;5033134;28;20056;-70
2022/09/10 09:14:13;;;;;;;10.63;2.58;;;29.90;61.20;;;;;;5032948;28;20028;-71
2022/09/10 09:17:15;;;;;;;10.80;2.28;;;29.90;61.00;;;;;;5032966;28;20091;-68
2022/09/10 09:20:11;;;;;;;11.82;2.33;;;29.90;60.70;;;;;;5032848;28;20026;-75
2022/09/10 09:22:50;;;;;;;10.07;2.58;;;29.90;60.70;;;;;;5007464;28;20052;-71
2022/09/10 09:25:33;;;;;;;9.93;2.17;;;29.90;60.00;;;;;;5032526;28;20030;-70
2022/09/10 09:27:59;;;;;;;12.00;2.20;;;29.90;59.90;;;;;;5033120;28;20038;-70
2022/09/10 09:30:48;;;;;;;8.57;1.83;;;29.90;60.20;;;;;;5032133;28;20421;-74
2022/09/10 09:33:19;;;;;;;8.88;2.10;;;29.90;60.40;;;;;;5032482;28;20029;-73
2022/09/10 09:35:47;;;;;;;9.52;2.30;;;29.90;59.30;;;;;;5032287;28;20032;-79
2022/09/10 09:38:45;;;;;;;7.03;1.80;;;29.90;59.90;;;;;;5032568;28;20554;-77
2022/09/10 09:41:36;;;;;;;11.93;2.10;;;29.90;59.50;;;;;;5020301;28;20044;-77
2022/09/10 09:44:05;;;;;;;9.90;2.58;;;29.90;58.70;;;;;;5032012;28;20034;-75
2022/09/10 09:46:33;;;;;;;8.35;2.20;;;29.90;59.70;;;;;;5032124;28;20463;-70
2022/09/10 09:49:02;;;;;;;8.30;1.92;;;30.00;59.40;;;;;;5031942;28;20088;-74
2022/09/10 09:51:34;;;;;;;8.75;2.17;;;30.00;58.90;;;;;;5031721;28;20033;-71
2022/09/10 09:54:07;;;;;;;10.95;2.45;;;30.10;59.20;;;;;;5031988;28;20049;-71
2022/09/10 09:56:48;;;;;;;15.30;2.33;;;30.10;58.50;;;;;;5032128;28;20026;-78
2022/09/10 09:59:29;;;;;;;7.50;1.98;;;30.10;57.30;;;;;;5032611;28;20033;-71
2022/09/10 10:01:58;;;;;;;6.68;1.98;;;30.10;58.20;;;;;;5032289;28;20028;-69
2022/09/10 10:04:29;;;;;;;8.30;2.40;;;30.10;57.90;;;;;;5032296;28;20019;-70
2022/09/10 10:06:58;;;;;;;13.20;3.60;;;30.10;57.50;;;;;;5032054;28;20042;-72
2022/09/10 10:09:32;;;;;;;10.98;4.38;;;30.20;57.50;;;;;;5032132;28;20037;-68
2022/09/10 10:11:59;;;;;;;12.93;4.13;;;30.30;57.00;;;;;;5032191;28;20025;-74
2022/09/10 10:14:30;;;;;;;10.20;3.53;;;30.40;56.50;;;;;;5032247;28;20057;-70
2022/09/10 10:16:59;;;;;;;8.82;3.15;;;30.50;56.10;;;;;;5032158;28;20021;-71
2022/09/10 10:19:31;;;;;;;8.30;1.80;;;30.50;56.30;;;;;;5032018;28;20133;-74
2022/09/10 10:22:12;;;;;;;9.48;2.65;;;30.50;55.30;;;;;;5031794;28;20358;-74
2022/09/10 10:24:38;;;;;;;7.80;2.08;;;30.60;55.10;;;;;;5031174;28;20029;-72
2022/09/10 10:27:04;;;;;;;7.97;2.03;;;30.70;56.30;;;;;;5035119;28;20044;-69
2022/09/10 10:29:31;;;;;;;7.88;1.90;;;30.80;56.50;;;;;;5035137;28;20471;-70
2022/09/10 10:31:56;;;;;;;9.32;2.10;;;30.70;57.10;;;;;;5036350;28;20164;-71
2022/09/10 10:34:52;;;;;;;7.20;1.73;;;30.80;56.80;;;;;;5036087;28;20091;-72
2022/09/10 10:37:41;;;;;;;10.10;2.05;;;30.80;55.20;;;;;;5035951;28;20033;-73
2022/09/10 10:40:18;;;;;;;10.25;2.50;;;30.80;55.30;;;;;;5035710;28;20021;-73
2022/09/10 10:43:02;;;;;;;7.07;1.63;;;30.90;55.40;;;;;;5017626;28;20026;-71
2022/09/10 10:45:47;;;;;;;7.88;2.00;;;31.00;55.00;;;;;;5035527;28;20033;-70
2022/09/10 10:48:32;;;;;;;8.90;2.10;;;31.00;54.70;;;;;;5035606;28;20087;-71
2022/09/10 10:51:05;;;;;;;6.05;1.80;;;31.10;54.20;;;;;;5035285;28;20024;-71
2022/09/10 10:54:15;;;;;;;9.50;1.90;;;31.20;55.20;;;;;;5035415;28;20423;-70
2022/09/10 10:56:49;;;;;;;6.82;1.98;;;31.20;52.90;;;;;;4974464;28;20117;-71
2022/09/10 10:59:51;;;;;;;8.95;2.28;;;31.30;52.40;;;;;;4974735;28;20082;-74
2022/09/10 11:02:26;;;;;;;6.57;1.88;;;31.40;53.60;;;;;;5021310;28;20561;-72
2022/09/10 11:04:54;;;;;;;6.85;2.53;;;31.50;52.20;;;;;;5035342;28;20025;-72
2022/09/10 11:07:38;;;;;;;6.00;1.95;;;31.40;53.90;;;;;;5035631;28;20049;-71
2022/09/10 11:10:22;;;;;;;10.88;2.47;;;31.40;54.40;;;;;;5035448;28;20048;-70
2022/09/10 11:13:26;;;;;;;12.70;2.72;;;31.50;53.30;;;;;;5035527;28;20022;-74
2022/09/10 11:16:24;;;;;;;8.07;2.15;;;31.50;53.20;;;;;;5004601;28;20042;-75
2022/09/10 11:19:02;;;;;;;8.98;1.85;;;31.40;54.90;;;;;;5034468;28;20048;-73
2022/09/10 11:21:42;;;;;;;8.90;2.30;;;31.30;54.10;;;;;;5035227;28;20114;-72
2022/09/10 11:24:32;;;;;;;9.60;1.98;;;31.30;54.70;;;;;;5035102;28;20037;-76
2022/09/10 11:27:17;;;;;;;7.43;1.80;;;31.40;55.20;;;;;;5034570;28;20103;-74
2022/09/10 11:30:10;;;;;;;6.18;2.00;;;31.60;56.20;;;;;;5034960;28;20471;-72
2022/09/10 11:32:43;;;;;;;9.02;1.60;;;31.80;53.80;;;;;;5028552;28;20045;-71
2022/09/10 11:35:16;;;;;;;5.97;1.70;;;31.90;54.90;;;;;;5034927;28;20038;-71
2022/09/10 11:37:52;;;;;;;6.25;1.73;;;32.10;55.10;;;;;;5016761;28;20379;-71
2022/09/10 11:40:59;;;;;;;12.65;3.35;;;32.10;53.80;;;;;;5033204;28;20037;-71
2022/09/10 11:43:57;;;;;;;8.38;2.10;;;32.10;54.40;;;;;;5034791;28;20050;-72
2022/09/10 11:46:31;;;;;;;9.60;1.83;;;32.10;54.60;;;;;;5034523;28;20037;-72
2022/09/10 11:49:06;;;;;;;5.63;1.70;;;32.10;56.30;;;;;;5034775;28;20116;-73
2022/09/10 11:51:36;;;;;;;9.95;1.92;;;32.10;55.80;;;;;;5034735;28;20489;-73
2022/09/10 11:54:24;;;;;;;8.23;1.70;;;32.10;55.80;;;;;;5034423;28;20026;-71
2022/09/10 11:57:10;;;;;;;7.63;2.08;;;32.10;55.50;;;;;;5033031;28;20044;-75
2022/09/10 12:00:10;;;;;;;8.88;1.95;;;32.00;54.20;;;;;;5034564;28;20029;-73
2022/09/10 12:03:13;;;;;;;7.30;1.90;;;31.90;54.20;;;;;;5034501;28;20026;-73
2022/09/10 12:05:57;;;;;;;6.88;2.08;;;32.00;53.90;;;;;;5034181;28;20037;-72
2022/09/10 12:08:38;;;;;;;7.93;1.92;;;32.20;53.30;;;;;;5034150;28;20037;-69
2022/09/10 12:11:37;;;;;;;7.35;1.90;;;32.10;53.20;;;;;;5034385;28;20109;-69
2022/09/10 12:14:07;;;;;;;8.73;2.88;;;32.10;52.50;;;;;;5034222;28;20025;-69
2022/09/10 12:16:40;;;;;;;7.25;2.05;;;32.10;54.20;;;;;;5016359;28;20501;-70
2022/09/10 12:19:22;;;;;;;8.00;2.00;;;32.20;53.60;;;;;;5016413;28;20068;-71
2022/09/10 12:22:23;;;;;;;9.05;2.35;;;32.20;53.80;;;;;;5034355;28;20474;-70
2022/09/10 12:24:58;;;;;;;7.85;2.17;;;32.20;52.50;;;;;;5033996;28;20101;-72
2022/09/10 12:27:42;;;;;;;10.50;2.85;;;32.10;54.20;;;;;;5033993;28;20053;-74
2022/09/10 12:30:27;;;;;;;8.52;2.00;;;32.10;53.50;;;;;;5034138;28;20392;-70
2022/09/10 12:32:56;;;;;;;7.65;1.98;;;32.10;53.80;;;;;;5034574;28;20040;-72
2022/09/10 12:35:33;;;;;;;7.65;2.00;;;32.00;54.20;;;;;;5033888;28;20129;-69
2022/09/10 12:38:36;;;;;;;9.35;2.10;;;32.00;54.10;;;;;;5034094;28;20036;-70
2022/09/10 12:41:03;;;;;;;9.97;1.87;;;32.10;52.70;;;;;;5034856;28;20025;-69
2022/09/10 12:43:41;;;;;;;8.35;1.60;;;32.00;53.60;;;;;;5034156;28;20375;-69
2022/09/10 12:46:09;;;;;;;8.05;1.83;;;31.90;53.00;;;;;;5015717;28;20131;-69
2022/09/10 12:48:49;;;;;;;5.90;1.73;;;31.80;52.40;;;;;;5033681;28;20026;-69
2022/09/10 12:51:18;;;;;;;8.73;2.05;;;31.90;52.30;;;;;;5033352;28;20053;-69
2022/09/10 12:54:02;;;;;;;11.38;2.00;;;31.90;53.20;;;;;;5033715;28;20013;-69
2022/09/10 12:56:51;;;;;;;8.55;2.17;;;32.00;52.80;;;;;;5033637;28;20064;-71
2022/09/10 12:59:45;;;;;;;8.40;2.17;;;32.00;51.40;;;;;;5033538;28;20026;-76
2022/09/10 13:02:36;;;;;;;6.30;1.60;;;32.00;51.30;;;;;;5033456;28;20029;-71
2022/09/10 13:05:23;;;;;;;10.05;2.03;;;32.10;51.10;;;;;;5033130;28;20133;-71